sensor_id;sensor_type;location;lat;lon;timestamp;P1;durP1;ratioP1;P2;durP2;ratioP2
22768;SDS011;13001;51.968;5.918;2023-04-06T00:01:08;918.13;;;831.97;;
22768;SDS011;13001;51.968;5.918;2023-04-06T00:03:34;867.67;;;789.20;;
22768;SDS011;13001;51.968;5.918;2023-04-06T00:06:02;510.07;;;473.03;;
22768;SDS011;13001;51.968;5.918;2023-04-06T00:08:30;896.37;;;816.23;;
22768;SDS011;13001;51.968;5.918;2023-04-06T00:10:57;545.60;;;505.20;;
22768;SDS011;13001;51.968;5.918;2023-04-06T00:13:24;873.43;;;793.87;;
22768;SDS011;13001;51.968;5.918;2023-04-06T00:15:51;872.23;;;793.60;;
22768;SDS011;13001;51.968;5.918;2023-04-06T00:18:19;448.00;;;414.83;;
22768;SDS011;13001;51.968;5.918;2023-04-06T00:20:46;870.47;;;792.23;;
22768;SDS011;13001;51.968;5.918;2023-04-06T00:23:13;475.70;;;441.03;;
22768;SDS011;13001;51.968;5.918;2023-04-06T00:25:41;834.70;;;758.83;;
22768;SDS011;13001;51.968;5.918;2023-04-06T00:28:08;842.80;;;765.43;;
22768;SDS011;13001;51.968;5.918;2023-04-06T00:30:36;777.47;;;705.97;;
22768;SDS011;13001;51.968;5.918;2023-04-06T00:33:03;760.40;;;689.33;;
22768;SDS011;13001;51.968;5.918;2023-04-06T00:35:31;805.07;;;733.67;;
22768;SDS011;13001;51.968;5.918;2023-04-06T00:37:58;491.87;;;455.83;;
22768;SDS011;13001;51.968;5.918;2023-04-06T00:40:25;780.03;;;709.67;;
22768;SDS011;13001;51.968;5.918;2023-04-06T00:42:54;790.53;;;718.23;;
22768;SDS011;13001;51.968;5.918;2023-04-06T00:45:22;766.43;;;693.50;;
22768;SDS011;13001;51.968;5.918;2023-04-06T00:47:49;735.87;;;667.40;;
22768;SDS011;13001;51.968;5.918;2023-04-06T00:50:16;726.20;;;660.07;;
22768;SDS011;13001;51.968;5.918;2023-04-06T00:52:44;456.63;;;422.70;;
22768;SDS011;13001;51.968;5.918;2023-04-06T00:55:11;734.57;;;669.87;;
22768;SDS011;13001;51.968;5.918;2023-04-06T00:57:38;463.10;;;428.00;;
22768;SDS011;13001;51.968;5.918;2023-04-06T01:00:06;719.93;;;657.73;;
22768;SDS011;13001;51.968;5.918;2023-04-06T01:02:34;766.53;;;699.43;;
22768;SDS011;13001;51.968;5.918;2023-04-06T01:05:01;773.37;;;705.37;;
22768;SDS011;13001;51.968;5.918;2023-04-06T01:07:28;418.90;;;386.33;;
22768;SDS011;13001;51.968;5.918;2023-04-06T01:09:56;705.20;;;648.07;;
22768;SDS011;13001;51.968;5.918;2023-04-06T01:12:24;736.10;;;675.60;;
22768;SDS011;13001;51.968;5.918;2023-04-06T01:14:51;703.07;;;647.00;;
22768;SDS011;13001;51.968;5.918;2023-04-06T01:17:22;423.13;;;389.90;;
22768;SDS011;13001;51.968;5.918;2023-04-06T01:19:47;702.83;;;646.23;;
22768;SDS011;13001;51.968;5.918;2023-04-06T01:22:16;698.20;;;642.47;;
22768;SDS011;13001;51.968;5.918;2023-04-06T01:24:44;682.90;;;627.87;;
22768;SDS011;13001;51.968;5.918;2023-04-06T01:27:12;685.07;;;628.93;;
22768;SDS011;13001;51.968;5.918;2023-04-06T01:29:39;683.10;;;627.63;;
22768;SDS011;13001;51.968;5.918;2023-04-06T01:32:07;719.03;;;661.77;;
22768;SDS011;13001;51.968;5.918;2023-04-06T01:34:35;686.10;;;631.87;;
22768;SDS011;13001;51.968;5.918;2023-04-06T01:37:02;674.83;;;620.60;;
22768;SDS011;13001;51.968;5.918;2023-04-06T01:39:29;413.93;;;381.63;;
22768;SDS011;13001;51.968;5.918;2023-04-06T01:41:57;398.47;;;367.33;;
22768;SDS011;13001;51.968;5.918;2023-04-06T01:44:24;429.13;;;395.53;;
22768;SDS011;13001;51.968;5.918;2023-04-06T01:46:52;424.07;;;391.20;;
22768;SDS011;13001;51.968;5.918;2023-04-06T01:49:19;415.27;;;383.73;;
22768;SDS011;13001;51.968;5.918;2023-04-06T01:51:46;437.20;;;404.87;;
22768;SDS011;13001;51.968;5.918;2023-04-06T01:54:13;409.50;;;379.67;;
22768;SDS011;13001;51.968;5.918;2023-04-06T01:56:41;563.23;;;522.53;;
22768;SDS011;13001;51.968;5.918;2023-04-06T01:59:08;562.10;;;521.50;;
22768;SDS011;13001;51.968;5.918;2023-04-06T02:01:35;540.60;;;501.67;;
22768;SDS011;13001;51.968;5.918;2023-04-06T02:04:02;548.30;;;509.13;;
22768;SDS011;13001;51.968;5.918;2023-04-06T02:06:30;554.43;;;515.17;;
22768;SDS011;13001;51.968;5.918;2023-04-06T02:08:57;502.17;;;466.80;;
22768;SDS011;13001;51.968;5.918;2023-04-06T02:11:24;487.97;;;454.07;;
22768;SDS011;13001;51.968;5.918;2023-04-06T02:13:52;503.73;;;468.67;;
22768;SDS011;13001;51.968;5.918;2023-04-06T02:16:19;504.40;;;469.10;;
22768;SDS011;13001;51.968;5.918;2023-04-06T02:18:46;550.53;;;511.23;;
22768;SDS011;13001;51.968;5.918;2023-04-06T02:21:14;533.37;;;494.80;;
22768;SDS011;13001;51.968;5.918;2023-04-06T02:23:42;570.53;;;529.30;;
22768;SDS011;13001;51.968;5.918;2023-04-06T02:26:10;386.47;;;360.30;;
22768;SDS011;13001;51.968;5.918;2023-04-06T02:28:37;490.80;;;456.27;;
22768;SDS011;13001;51.968;5.918;2023-04-06T02:31:06;491.23;;;456.63;;
22768;SDS011;13001;51.968;5.918;2023-04-06T02:33:33;460.67;;;428.93;;
22768;SDS011;13001;51.968;5.918;2023-04-06T02:36:01;454.37;;;422.47;;
22768;SDS011;13001;51.968;5.918;2023-04-06T02:38:28;488.83;;;454.67;;
22768;SDS011;13001;51.968;5.918;2023-04-06T02:40:55;328.27;;;306.60;;
22768;SDS011;13001;51.968;5.918;2023-04-06T02:43:23;448.20;;;416.83;;
22768;SDS011;13001;51.968;5.918;2023-04-06T02:45:50;311.00;;;290.40;;
22768;SDS011;13001;51.968;5.918;2023-04-06T02:48:18;310.63;;;290.00;;
22768;SDS011;13001;51.968;5.918;2023-04-06T02:50:45;293.70;;;274.53;;
22768;SDS011;13001;51.968;5.918;2023-04-06T02:53:13;445.47;;;414.23;;
22768;SDS011;13001;51.968;5.918;2023-04-06T02:55:40;323.07;;;301.57;;
22768;SDS011;13001;51.968;5.918;2023-04-06T02:58:07;438.03;;;407.13;;
22768;SDS011;13001;51.968;5.918;2023-04-06T03:00:34;435.57;;;405.30;;
22768;SDS011;13001;51.968;5.918;2023-04-06T03:03:02;310.50;;;289.97;;
22768;SDS011;13001;51.968;5.918;2023-04-06T03:05:29;430.10;;;400.03;;
22768;SDS011;13001;51.968;5.918;2023-04-06T03:07:57;440.90;;;410.07;;
22768;SDS011;13001;51.968;5.918;2023-04-06T03:10:24;430.13;;;399.53;;
22768;SDS011;13001;51.968;5.918;2023-04-06T03:12:51;409.93;;;381.03;;
22768;SDS011;13001;51.968;5.918;2023-04-06T03:15:19;413.47;;;384.87;;
22768;SDS011;13001;51.968;5.918;2023-04-06T03:17:46;409.10;;;380.27;;
22768;SDS011;13001;51.968;5.918;2023-04-06T03:20:13;432.93;;;401.63;;
22768;SDS011;13001;51.968;5.918;2023-04-06T03:22:40;304.60;;;283.90;;
22768;SDS011;13001;51.968;5.918;2023-04-06T03:25:08;403.23;;;374.53;;
22768;SDS011;13001;51.968;5.918;2023-04-06T03:27:35;393.30;;;365.60;;
22768;SDS011;13001;51.968;5.918;2023-04-06T03:30:03;417.97;;;388.20;;
22768;SDS011;13001;51.968;5.918;2023-04-06T03:32:31;403.17;;;374.53;;
22768;SDS011;13001;51.968;5.918;2023-04-06T03:34:59;405.70;;;377.53;;
22768;SDS011;13001;51.968;5.918;2023-04-06T03:37:26;408.53;;;379.63;;
22768;SDS011;13001;51.968;5.918;2023-04-06T03:39:54;407.17;;;378.20;;
22768;SDS011;13001;51.968;5.918;2023-04-06T03:42:22;397.13;;;369.40;;
22768;SDS011;13001;51.968;5.918;2023-04-06T03:44:49;424.83;;;395.20;;
22768;SDS011;13001;51.968;5.918;2023-04-06T03:47:16;415.10;;;385.43;;
22768;SDS011;13001;51.968;5.918;2023-04-06T03:49:44;406.17;;;377.50;;
22768;SDS011;13001;51.968;5.918;2023-04-06T03:52:11;406.17;;;377.33;;
22768;SDS011;13001;51.968;5.918;2023-04-06T03:54:39;416.40;;;387.30;;
22768;SDS011;13001;51.968;5.918;2023-04-06T03:57:06;403.93;;;376.30;;
22768;SDS011;13001;51.968;5.918;2023-04-06T03:59:33;412.63;;;384.47;;
22768;SDS011;13001;51.968;5.918;2023-04-06T04:02:01;465.13;;;432.93;;
22768;SDS011;13001;51.968;5.918;2023-04-06T04:04:29;430.00;;;400.07;;
22768;SDS011;13001;51.968;5.918;2023-04-06T04:06:56;438.97;;;408.73;;
22768;SDS011;13001;51.968;5.918;2023-04-06T04:09:23;440.93;;;410.43;;
22768;SDS011;13001;51.968;5.918;2023-04-06T04:11:51;444.73;;;413.63;;
22768;SDS011;13001;51.968;5.918;2023-04-06T04:14:18;435.03;;;404.63;;
22768;SDS011;13001;51.968;5.918;2023-04-06T04:16:46;444.97;;;413.87;;
22768;SDS011;13001;51.968;5.918;2023-04-06T04:19:13;471.30;;;438.07;;
22768;SDS011;13001;51.968;5.918;2023-04-06T04:21:44;441.70;;;410.93;;
22768;SDS011;13001;51.968;5.918;2023-04-06T04:24:11;480.07;;;445.77;;
22768;SDS011;13001;51.968;5.918;2023-04-06T04:26:39;455.07;;;423.03;;
22768;SDS011;13001;51.968;5.918;2023-04-06T04:29:06;531.03;;;492.80;;
22768;SDS011;13001;51.968;5.918;2023-04-06T04:31:34;496.37;;;461.10;;
22768;SDS011;13001;51.968;5.918;2023-04-06T04:34:01;523.87;;;486.60;;
22768;SDS011;13001;51.968;5.918;2023-04-06T04:36:30;511.43;;;475.53;;
22768;SDS011;13001;51.968;5.918;2023-04-06T04:38:57;512.47;;;476.10;;
22768;SDS011;13001;51.968;5.918;2023-04-06T04:41:25;507.20;;;471.03;;
22768;SDS011;13001;51.968;5.918;2023-04-06T04:43:52;458.17;;;425.73;;
22768;SDS011;13001;51.968;5.918;2023-04-06T04:46:19;504.07;;;467.77;;
22768;SDS011;13001;51.968;5.918;2023-04-06T04:48:46;475.17;;;442.07;;
22768;SDS011;13001;51.968;5.918;2023-04-06T04:51:14;474.47;;;441.00;;
22768;SDS011;13001;51.968;5.918;2023-04-06T04:53:41;486.27;;;450.97;;
22768;SDS011;13001;51.968;5.918;2023-04-06T04:56:08;420.50;;;390.23;;
22768;SDS011;13001;51.968;5.918;2023-04-06T04:58:37;395.73;;;367.00;;
22768;SDS011;13001;51.968;5.918;2023-04-06T05:01:04;402.07;;;372.10;;
22768;SDS011;13001;51.968;5.918;2023-04-06T05:03:32;429.50;;;397.57;;
22768;SDS011;13001;51.968;5.918;2023-04-06T05:05:59;427.07;;;395.80;;
22768;SDS011;13001;51.968;5.918;2023-04-06T05:08:27;417.53;;;384.77;;
22768;SDS011;13001;51.968;5.918;2023-04-06T05:10:54;404.20;;;374.83;;
22768;SDS011;13001;51.968;5.918;2023-04-06T05:13:21;407.40;;;377.27;;
22768;SDS011;13001;51.968;5.918;2023-04-06T05:15:49;452.90;;;419.37;;
22768;SDS011;13001;51.968;5.918;2023-04-06T05:18:16;376.43;;;351.20;;
22768;SDS011;13001;51.968;5.918;2023-04-06T05:20:43;596.20;;;552.40;;
22768;SDS011;13001;51.968;5.918;2023-04-06T05:23:11;653.43;;;604.43;;
22768;SDS011;13001;51.968;5.918;2023-04-06T05:25:39;433.20;;;402.73;;
22768;SDS011;13001;51.968;5.918;2023-04-06T05:28:07;494.00;;;458.43;;
22768;SDS011;13001;51.968;5.918;2023-04-06T05:30:34;778.73;;;718.90;;
22768;SDS011;13001;51.968;5.918;2023-04-06T05:33:03;473.57;;;439.77;;
22768;SDS011;13001;51.968;5.918;2023-04-06T05:35:30;454.53;;;422.90;;
22768;SDS011;13001;51.968;5.918;2023-04-06T05:37:58;486.93;;;451.40;;
22768;SDS011;13001;51.968;5.918;2023-04-06T05:40:25;494.37;;;459.10;;
22768;SDS011;13001;51.968;5.918;2023-04-06T05:42:52;522.73;;;484.57;;
22768;SDS011;13001;51.968;5.918;2023-04-06T05:45:20;563.87;;;522.33;;
22768;SDS011;13001;51.968;5.918;2023-04-06T05:47:47;559.37;;;519.40;;
22768;SDS011;13001;51.968;5.918;2023-04-06T05:50:15;531.13;;;493.33;;
22768;SDS011;13001;51.968;5.918;2023-04-06T05:52:42;390.37;;;364.93;;
22768;SDS011;13001;51.968;5.918;2023-04-06T05:55:11;412.40;;;385.83;;
22768;SDS011;13001;51.968;5.918;2023-04-06T05:57:38;396.47;;;370.57;;
22768;SDS011;13001;51.968;5.918;2023-04-06T06:00:06;361.93;;;339.00;;
22768;SDS011;13001;51.968;5.918;2023-04-06T06:02:35;395.20;;;370.10;;
22768;SDS011;13001;51.968;5.918;2023-04-06T06:05:03;385.03;;;360.30;;
22768;SDS011;13001;51.968;5.918;2023-04-06T06:07:30;393.13;;;367.50;;
22768;SDS011;13001;51.968;5.918;2023-04-06T06:09:57;393.80;;;369.10;;
22768;SDS011;13001;51.968;5.918;2023-04-06T06:12:26;403.70;;;377.87;;
22768;SDS011;13001;51.968;5.918;2023-04-06T06:14:54;411.50;;;385.37;;
22768;SDS011;13001;51.968;5.918;2023-04-06T06:17:21;366.40;;;343.03;;
22768;SDS011;13001;51.968;5.918;2023-04-06T06:19:48;383.43;;;359.37;;
22768;SDS011;13001;51.968;5.918;2023-04-06T06:22:16;269.73;;;252.37;;
22768;SDS011;13001;51.968;5.918;2023-04-06T06:24:43;238.43;;;222.87;;
22768;SDS011;13001;51.968;5.918;2023-04-06T06:27:11;243.93;;;227.40;;
22768;SDS011;13001;51.968;5.918;2023-04-06T06:29:38;270.27;;;251.80;;
22768;SDS011;13001;51.968;5.918;2023-04-06T06:32:05;304.07;;;284.03;;
22768;SDS011;13001;51.968;5.918;2023-04-06T06:34:34;341.90;;;318.83;;
22768;SDS011;13001;51.968;5.918;2023-04-06T06:37:02;341.07;;;319.27;;
22768;SDS011;13001;51.968;5.918;2023-04-06T06:39:31;336.93;;;314.73;;
22768;SDS011;13001;51.968;5.918;2023-04-06T06:41:58;328.87;;;307.43;;
22768;SDS011;13001;51.968;5.918;2023-04-06T06:44:27;298.93;;;279.40;;
22768;SDS011;13001;51.968;5.918;2023-04-06T06:46:54;271.97;;;253.70;;
22768;SDS011;13001;51.968;5.918;2023-04-06T06:49:22;257.10;;;240.60;;
22768;SDS011;13001;51.968;5.918;2023-04-06T06:51:49;209.17;;;195.93;;
22768;SDS011;13001;51.968;5.918;2023-04-06T06:54:16;189.97;;;178.03;;
22768;SDS011;13001;51.968;5.918;2023-04-06T06:56:44;173.20;;;162.07;;
22768;SDS011;13001;51.968;5.918;2023-04-06T06:59:11;190.50;;;178.80;;
22768;SDS011;13001;51.968;5.918;2023-04-06T07:01:38;177.83;;;166.57;;
22768;SDS011;13001;51.968;5.918;2023-04-06T07:04:06;203.07;;;190.70;;
22768;SDS011;13001;51.968;5.918;2023-04-06T07:06:36;193.43;;;181.30;;
22768;SDS011;13001;51.968;5.918;2023-04-06T07:09:03;214.23;;;200.97;;
22768;SDS011;13001;51.968;5.918;2023-04-06T07:11:31;232.83;;;218.20;;
22768;SDS011;13001;51.968;5.918;2023-04-06T07:13:58;229.07;;;215.13;;
22768;SDS011;13001;51.968;5.918;2023-04-06T07:16:26;229.10;;;215.27;;
22768;SDS011;13001;51.968;5.918;2023-04-06T07:18:53;246.27;;;231.47;;
22768;SDS011;13001;51.968;5.918;2023-04-06T07:21:20;243.40;;;228.20;;
22768;SDS011;13001;51.968;5.918;2023-04-06T07:23:47;244.73;;;229.17;;
22768;SDS011;13001;51.968;5.918;2023-04-06T07:26:16;234.93;;;220.27;;
22768;SDS011;13001;51.968;5.918;2023-04-06T07:28:44;227.40;;;213.17;;
22768;SDS011;13001;51.968;5.918;2023-04-06T07:31:11;210.10;;;196.23;;
22768;SDS011;13001;51.968;5.918;2023-04-06T07:33:38;224.07;;;209.93;;
22768;SDS011;13001;51.968;5.918;2023-04-06T07:36:06;254.73;;;237.90;;
22768;SDS011;13001;51.968;5.918;2023-04-06T07:38:33;263.27;;;246.23;;
22768;SDS011;13001;51.968;5.918;2023-04-06T07:41:01;246.70;;;230.80;;
22768;SDS011;13001;51.968;5.918;2023-04-06T07:43:30;272.20;;;254.70;;
22768;SDS011;13001;51.968;5.918;2023-04-06T07:45:57;276.83;;;258.93;;
22768;SDS011;13001;51.968;5.918;2023-04-06T07:48:26;241.30;;;226.70;;
22768;SDS011;13001;51.968;5.918;2023-04-06T07:50:59;249.20;;;233.57;;
22768;SDS011;13001;51.968;5.918;2023-04-06T07:53:22;226.00;;;211.77;;
22768;SDS011;13001;51.968;5.918;2023-04-06T07:55:50;228.97;;;214.23;;
22768;SDS011;13001;51.968;5.918;2023-04-06T07:58:17;214.30;;;200.80;;
22768;SDS011;13001;51.968;5.918;2023-04-06T08:00:44;216.27;;;202.43;;
22768;SDS011;13001;51.968;5.918;2023-04-06T08:03:12;237.63;;;222.50;;
22768;SDS011;13001;51.968;5.918;2023-04-06T08:05:39;223.37;;;208.90;;
22768;SDS011;13001;51.968;5.918;2023-04-06T08:08:06;226.97;;;212.40;;
22768;SDS011;13001;51.968;5.918;2023-04-06T08:10:34;222.80;;;208.17;;
22768;SDS011;13001;51.968;5.918;2023-04-06T08:13:01;192.60;;;180.30;;
22768;SDS011;13001;51.968;5.918;2023-04-06T08:15:30;189.20;;;177.03;;
22768;SDS011;13001;51.968;5.918;2023-04-06T08:17:57;200.63;;;187.53;;
22768;SDS011;13001;51.968;5.918;2023-04-06T08:20:24;152.30;;;141.60;;
22768;SDS011;13001;51.968;5.918;2023-04-06T08:22:51;137.03;;;127.20;;
22768;SDS011;13001;51.968;5.918;2023-04-06T08:25:19;149.23;;;139.03;;
22768;SDS011;13001;51.968;5.918;2023-04-06T08:27:46;166.13;;;154.73;;
22768;SDS011;13001;51.968;5.918;2023-04-06T08:30:13;141.03;;;130.53;;
22768;SDS011;13001;51.968;5.918;2023-04-06T08:32:42;144.93;;;134.80;;
22768;SDS011;13001;51.968;5.918;2023-04-06T08:35:10;201.10;;;186.93;;
22768;SDS011;13001;51.968;5.918;2023-04-06T08:37:38;178.00;;;166.13;;
22768;SDS011;13001;51.968;5.918;2023-04-06T08:40:05;237.13;;;221.17;;
22768;SDS011;13001;51.968;5.918;2023-04-06T08:42:33;246.53;;;230.10;;
22768;SDS011;13001;51.968;5.918;2023-04-06T08:45:00;259.83;;;242.80;;
22768;SDS011;13001;51.968;5.918;2023-04-06T08:47:27;233.80;;;218.70;;
22768;SDS011;13001;51.968;5.918;2023-04-06T08:49:54;261.23;;;244.07;;
22768;SDS011;13001;51.968;5.918;2023-04-06T08:52:22;270.10;;;252.67;;
22768;SDS011;13001;51.968;5.918;2023-04-06T08:54:51;252.23;;;235.97;;
22768;SDS011;13001;51.968;5.918;2023-04-06T08:57:18;253.73;;;236.70;;
22768;SDS011;13001;51.968;5.918;2023-04-06T08:59:46;259.87;;;242.83;;
22768;SDS011;13001;51.968;5.918;2023-04-06T09:02:15;260.97;;;243.73;;
22768;SDS011;13001;51.968;5.918;2023-04-06T09:04:43;244.73;;;228.37;;
22768;SDS011;13001;51.968;5.918;2023-04-06T09:07:11;256.23;;;239.33;;
22768;SDS011;13001;51.968;5.918;2023-04-06T09:09:38;266.60;;;249.57;;
22768;SDS011;13001;51.968;5.918;2023-04-06T09:12:07;254.87;;;237.77;;
22768;SDS011;13001;51.968;5.918;2023-04-06T09:14:36;269.50;;;251.77;;
22768;SDS011;13001;51.968;5.918;2023-04-06T09:17:04;253.63;;;236.77;;
22768;SDS011;13001;51.968;5.918;2023-04-06T09:19:32;263.23;;;246.13;;
22768;SDS011;13001;51.968;5.918;2023-04-06T09:22:07;272.17;;;254.43;;
22768;SDS011;13001;51.968;5.918;2023-04-06T09:24:46;263.47;;;246.43;;
22768;SDS011;13001;51.968;5.918;2023-04-06T09:27:14;252.43;;;236.63;;
22768;SDS011;13001;51.968;5.918;2023-04-06T09:29:42;248.87;;;233.27;;
22768;SDS011;13001;51.968;5.918;2023-04-06T09:32:10;244.93;;;229.67;;
22768;SDS011;13001;51.968;5.918;2023-04-06T09:34:40;249.80;;;234.17;;
22768;SDS011;13001;51.968;5.918;2023-04-06T09:37:16;241.93;;;227.07;;
22768;SDS011;13001;51.968;5.918;2023-04-06T09:39:45;218.63;;;205.20;;
22768;SDS011;13001;51.968;5.918;2023-04-06T09:42:23;226.30;;;211.67;;
22768;SDS011;13001;51.968;5.918;2023-04-06T09:44:41;208.00;;;194.07;;
22768;SDS011;13001;51.968;5.918;2023-04-06T09:47:08;207.07;;;194.40;;
22768;SDS011;13001;51.968;5.918;2023-04-06T09:49:37;231.53;;;216.97;;
22768;SDS011;13001;51.968;5.918;2023-04-06T09:52:06;232.87;;;218.03;;
22768;SDS011;13001;51.968;5.918;2023-04-06T09:54:33;230.57;;;216.83;;
22768;SDS011;13001;51.968;5.918;2023-04-06T10:02:00;217.57;;;204.00;;
22768;SDS011;13001;51.968;5.918;2023-04-06T10:05:30;207.33;;;193.93;;
22768;SDS011;13001;51.968;5.918;2023-04-06T10:07:06;215.13;;;201.60;;
22768;SDS011;13001;51.968;5.918;2023-04-06T10:09:33;200.93;;;188.43;;
22768;SDS011;13001;51.968;5.918;2023-04-06T10:12:05;227.20;;;213.33;;
22768;SDS011;13001;51.968;5.918;2023-04-06T10:14:33;218.93;;;205.33;;
22768;SDS011;13001;51.968;5.918;2023-04-06T10:17:07;182.33;;;170.33;;
22768;SDS011;13001;51.968;5.918;2023-04-06T10:19:39;206.40;;;192.50;;
22768;SDS011;13001;51.968;5.918;2023-04-06T10:22:08;220.80;;;207.07;;
22768;SDS011;13001;51.968;5.918;2023-04-06T10:24:36;188.00;;;175.97;;
22768;SDS011;13001;51.968;5.918;2023-04-06T10:27:04;208.67;;;194.63;;
22768;SDS011;13001;51.968;5.918;2023-04-06T10:29:47;183.27;;;171.67;;
22768;SDS011;13001;51.968;5.918;2023-04-06T10:32:11;201.40;;;188.77;;
22768;SDS011;13001;51.968;5.918;2023-04-06T10:34:38;192.23;;;180.07;;
22768;SDS011;13001;51.968;5.918;2023-04-06T10:37:13;182.27;;;171.13;;
22768;SDS011;13001;51.968;5.918;2023-04-06T10:39:53;192.13;;;180.17;;
22768;SDS011;13001;51.968;5.918;2023-04-06T10:42:24;182.50;;;170.27;;
22768;SDS011;13001;51.968;5.918;2023-04-06T10:44:54;207.13;;;194.30;;
22768;SDS011;13001;51.968;5.918;2023-04-06T10:47:22;183.93;;;172.23;;
22768;SDS011;13001;51.968;5.918;2023-04-06T10:49:51;168.37;;;157.00;;
22768;SDS011;13001;51.968;5.918;2023-04-06T10:52:18;183.40;;;171.67;;
22768;SDS011;13001;51.968;5.918;2023-04-06T10:54:45;184.80;;;173.20;;
22768;SDS011;13001;51.968;5.918;2023-04-06T10:57:14;212.20;;;198.73;;
22768;SDS011;13001;51.968;5.918;2023-04-06T10:59:42;170.07;;;158.53;;
22768;SDS011;13001;51.968;5.918;2023-04-06T11:02:18;174.97;;;162.60;;
22768;SDS011;13001;51.968;5.918;2023-04-06T11:04:38;181.37;;;168.73;;
22768;SDS011;13001;51.968;5.918;2023-04-06T11:07:06;162.83;;;150.80;;
22768;SDS011;13001;51.968;5.918;2023-04-06T11:09:33;190.30;;;178.33;;
22768;SDS011;13001;51.968;5.918;2023-04-06T11:12:02;192.70;;;180.83;;
22768;SDS011;13001;51.968;5.918;2023-04-06T11:14:29;188.67;;;176.90;;
22768;SDS011;13001;51.968;5.918;2023-04-06T11:16:56;193.87;;;181.73;;
22768;SDS011;13001;51.968;5.918;2023-04-06T11:19:24;204.57;;;191.87;;
22768;SDS011;13001;51.968;5.918;2023-04-06T11:21:51;184.73;;;173.10;;
22768;SDS011;13001;51.968;5.918;2023-04-06T11:24:21;190.13;;;178.37;;
22768;SDS011;13001;51.968;5.918;2023-04-06T11:26:50;174.90;;;163.77;;
22768;SDS011;13001;51.968;5.918;2023-04-06T11:29:21;210.53;;;197.77;;
22768;SDS011;13001;51.968;5.918;2023-04-06T11:31:49;172.53;;;160.97;;
22768;SDS011;13001;51.968;5.918;2023-04-06T11:34:18;177.13;;;165.90;;
22768;SDS011;13001;51.968;5.918;2023-04-06T11:36:46;180.87;;;168.87;;
22768;SDS011;13001;51.968;5.918;2023-04-06T11:39:17;188.67;;;176.37;;
22768;SDS011;13001;51.968;5.918;2023-04-06T11:41:42;172.60;;;161.93;;
22768;SDS011;13001;51.968;5.918;2023-04-06T11:44:11;186.70;;;175.27;;
22768;SDS011;13001;51.968;5.918;2023-04-06T11:46:38;150.43;;;140.10;;
22768;SDS011;13001;51.968;5.918;2023-04-06T11:49:05;158.17;;;147.23;;
22768;SDS011;13001;51.968;5.918;2023-04-06T11:51:35;136.47;;;127.10;;
22768;SDS011;13001;51.968;5.918;2023-04-06T11:54:02;122.33;;;114.30;;
22768;SDS011;13001;51.968;5.918;2023-04-06T11:56:29;109.80;;;102.53;;
22768;SDS011;13001;51.968;5.918;2023-04-06T11:58:57;162.37;;;151.43;;
22768;SDS011;13001;51.968;5.918;2023-04-06T12:01:26;200.93;;;188.20;;
22768;SDS011;13001;51.968;5.918;2023-04-06T12:03:53;246.00;;;228.73;;
22768;SDS011;13001;51.968;5.918;2023-04-06T12:06:21;226.77;;;211.13;;
22768;SDS011;13001;51.968;5.918;2023-04-06T12:08:48;182.13;;;170.40;;
22768;SDS011;13001;51.968;5.918;2023-04-06T12:11:16;205.67;;;191.43;;
22768;SDS011;13001;51.968;5.918;2023-04-06T12:13:43;208.23;;;194.33;;
22768;SDS011;13001;51.968;5.918;2023-04-06T12:16:10;199.27;;;185.90;;
22768;SDS011;13001;51.968;5.918;2023-04-06T12:18:37;197.60;;;184.90;;
22768;SDS011;13001;51.968;5.918;2023-04-06T12:21:05;232.57;;;217.60;;
22768;SDS011;13001;51.968;5.918;2023-04-06T12:23:33;243.00;;;228.20;;
22768;SDS011;13001;51.968;5.918;2023-04-06T12:26:01;256.80;;;241.30;;
22768;SDS011;13001;51.968;5.918;2023-04-06T12:28:28;260.10;;;244.20;;
22768;SDS011;13001;51.968;5.918;2023-04-06T12:30:55;159.30;;;148.70;;
22768;SDS011;13001;51.968;5.918;2023-04-06T12:33:22;174.30;;;162.40;;
22768;SDS011;13001;51.968;5.918;2023-04-06T12:35:50;127.27;;;119.17;;
22768;SDS011;13001;51.968;5.918;2023-04-06T12:38:18;148.57;;;138.73;;
22768;SDS011;13001;51.968;5.918;2023-04-06T12:40:46;140.07;;;130.70;;
22768;SDS011;13001;51.968;5.918;2023-04-06T12:43:14;164.33;;;153.50;;
22768;SDS011;13001;51.968;5.918;2023-04-06T12:45:41;194.43;;;181.80;;
22768;SDS011;13001;51.968;5.918;2023-04-06T12:48:08;171.93;;;160.70;;
22768;SDS011;13001;51.968;5.918;2023-04-06T12:50:35;176.00;;;164.33;;
22768;SDS011;13001;51.968;5.918;2023-04-06T12:53:04;166.57;;;155.77;;
22768;SDS011;13001;51.968;5.918;2023-04-06T12:55:31;192.80;;;180.17;;
22768;SDS011;13001;51.968;5.918;2023-04-06T12:58:00;191.63;;;178.73;;
22768;SDS011;13001;51.968;5.918;2023-04-06T13:00:27;202.13;;;188.67;;
22768;SDS011;13001;51.968;5.918;2023-04-06T13:02:55;190.97;;;178.77;;
22768;SDS011;13001;51.968;5.918;2023-04-06T13:05:22;210.53;;;197.50;;
22768;SDS011;13001;51.968;5.918;2023-04-06T13:07:49;233.47;;;218.30;;
22768;SDS011;13001;51.968;5.918;2023-04-06T13:10:16;209.20;;;196.17;;
22768;SDS011;13001;51.968;5.918;2023-04-06T13:12:44;201.47;;;188.80;;
22768;SDS011;13001;51.968;5.918;2023-04-06T13:15:11;178.50;;;166.37;;
22768;SDS011;13001;51.968;5.918;2023-04-06T13:17:38;178.23;;;166.70;;
22768;SDS011;13001;51.968;5.918;2023-04-06T13:20:06;152.20;;;142.00;;
22768;SDS011;13001;51.968;5.918;2023-04-06T13:22:33;177.87;;;165.40;;
22768;SDS011;13001;51.968;5.918;2023-04-06T13:25:00;186.43;;;173.47;;
22768;SDS011;13001;51.968;5.918;2023-04-06T13:27:27;201.10;;;187.50;;
22768;SDS011;13001;51.968;5.918;2023-04-06T13:29:55;205.93;;;191.13;;
22768;SDS011;13001;51.968;5.918;2023-04-06T13:32:22;233.93;;;217.60;;
22768;SDS011;13001;51.968;5.918;2023-04-06T13:34:49;254.23;;;236.80;;
22768;SDS011;13001;51.968;5.918;2023-04-06T13:37:18;255.07;;;237.50;;
22768;SDS011;13001;51.968;5.918;2023-04-06T13:39:46;279.13;;;258.93;;
22768;SDS011;13001;51.968;5.918;2023-04-06T13:42:13;322.20;;;299.40;;
22768;SDS011;13001;51.968;5.918;2023-04-06T13:44:40;319.87;;;297.63;;
22768;SDS011;13001;51.968;5.918;2023-04-06T13:47:07;297.17;;;276.03;;
22768;SDS011;13001;51.968;5.918;2023-04-06T13:49:35;315.03;;;292.97;;
22768;SDS011;13001;51.968;5.918;2023-04-06T13:52:02;337.60;;;313.20;;
22768;SDS011;13001;51.968;5.918;2023-04-06T13:54:30;383.53;;;354.73;;
22768;SDS011;13001;51.968;5.918;2023-04-06T13:56:57;382.13;;;352.97;;
22768;SDS011;13001;51.968;5.918;2023-04-06T13:59:24;412.70;;;380.47;;
22768;SDS011;13001;51.968;5.918;2023-04-06T14:01:51;402.17;;;370.73;;
22768;SDS011;13001;51.968;5.918;2023-04-06T14:04:20;423.63;;;391.83;;